createdAt,value
2022-10-19T00:55:07.941Z,972.22
2022-10-19T00:56:07.877Z,972.24
2022-10-19T00:57:07.812Z,972.23
2022-10-19T00:58:07.742Z,972.24
2022-10-19T00:59:07.677Z,972.23
2022-10-19T01:00:07.616Z,972.23
2022-10-19T01:01:07.654Z,972.26
2022-10-19T01:02:07.500Z,972.28
2022-10-19T01:03:07.423Z,972.24
2022-10-19T01:04:07.352Z,972.24
2022-10-19T01:05:07.291Z,972.25
2022-10-19T01:06:07.227Z,972.24
2022-10-19T01:07:07.170Z,972.22
2022-10-19T01:08:07.106Z,972.21
2022-10-19T01:09:07.042Z,972.18
2022-10-19T01:10:06.978Z,972.15
2022-10-19T01:11:06.917Z,972.11
2022-10-19T01:12:06.846Z,972.10
2022-10-19T01:13:06.790Z,972.09
2022-10-19T01:14:06.726Z,972.12
2022-10-19T01:15:06.670Z,972.12
2022-10-19T01:16:06.595Z,972.13
2022-10-19T01:17:06.533Z,972.13
2022-10-19T01:18:06.468Z,972.12
2022-10-19T01:19:06.407Z,972.13
2022-10-19T01:20:06.342Z,972.13
2022-10-19T01:21:06.279Z,972.18
2022-10-19T01:22:06.214Z,972.17
2022-10-19T01:23:06.150Z,972.17
2022-10-19T01:24:06.088Z,972.16
2022-10-19T01:25:06.027Z,972.13
2022-10-19T01:26:05.963Z,972.10
2022-10-19T01:27:05.897Z,972.13
2022-10-19T01:28:05.833Z,972.12
2022-10-19T01:29:05.853Z,972.12
2022-10-19T01:30:05.705Z,972.13
2022-10-19T01:31:05.642Z,972.15
2022-10-19T01:32:05.582Z,972.15
2022-10-19T01:33:05.513Z,972.17
2022-10-19T01:34:05.450Z,972.16
2022-10-19T01:35:05.393Z,972.16
2022-10-19T01:36:05.332Z,972.17
2022-10-19T01:37:05.257Z,972.17
2022-10-19T01:38:05.193Z,972.14
2022-10-19T01:39:05.138Z,972.15
2022-10-19T01:40:05.076Z,972.15
2022-10-19T01:41:05.003Z,972.12
2022-10-19T01:42:04.949Z,972.13
2022-10-19T01:43:04.881Z,972.08
2022-10-19T01:44:04.814Z,972.09
2022-10-19T01:45:04.761Z,972.11
2022-10-19T01:46:04.692Z,972.10
2022-10-19T01:47:04.647Z,972.07
2022-10-19T01:48:04.562Z,972.08
2022-10-19T01:49:04.504Z,972.01
2022-10-19T01:50:04.435Z,972.01
2022-10-19T01:51:04.369Z,972.00
2022-10-19T01:52:04.326Z,972.03
2022-10-19T01:53:04.244Z,972.03
2022-10-19T01:54:04.184Z,972.06
2022-10-19T01:55:04.116Z,972.03
2022-10-19T01:56:04.053Z,972.05
2022-10-19T01:57:03.990Z,972.02
2022-10-19T01:58:07.109Z,972.02
2022-10-19T01:59:03.864Z,972.06
2022-10-19T02:00:03.793Z,972.05
2022-10-19T02:01:03.845Z,972.02
2022-10-19T02:02:03.677Z,972.04
2022-10-19T02:03:03.606Z,972.01
2022-10-19T02:04:03.539Z,972.06
2022-10-19T02:05:03.492Z,972.05
2022-10-19T02:06:03.415Z,972.03
2022-10-19T02:07:03.354Z,972.05
2022-10-19T02:08:03.293Z,972.05
2022-10-19T02:09:03.231Z,972.05
2022-10-19T02:10:03.202Z,972.02
2022-10-19T02:11:03.110Z,972.03
2022-10-19T02:12:03.036Z,972.03
2022-10-19T02:13:02.971Z,972.01
2022-10-19T02:14:02.925Z,972.02
2022-10-19T02:15:02.860Z,972.02
2022-10-19T02:16:02.781Z,972.01
2022-10-19T02:17:02.727Z,972.06
2022-10-19T02:18:02.672Z,972.00
2022-10-19T02:19:02.612Z,972.03
2022-10-19T02:20:02.558Z,972.07
2022-10-19T02:21:02.467Z,972.03
2022-10-19T02:22:02.401Z,972.05
2022-10-19T02:23:02.340Z,972.02
2022-10-19T02:24:02.281Z,972.05
2022-10-19T02:25:02.212Z,972.06
2022-10-19T02:26:02.149Z,972.06
2022-10-19T02:27:02.086Z,972.00
2022-10-19T02:28:02.022Z,972.02
2022-10-19T02:29:01.961Z,972.02
2022-10-19T02:30:01.897Z,972.03
2022-10-19T02:31:01.832Z,972.02
2022-10-19T02:32:01.769Z,972.04
2022-10-19T02:33:01.707Z,972.02
2022-10-19T02:34:01.648Z,972.01
2022-10-19T02:35:01.580Z,971.98
2022-10-19T02:36:01.518Z,972.01
2022-10-19T02:37:01.458Z,972.01
2022-10-19T02:38:01.391Z,971.99
2022-10-19T02:39:01.321Z,971.97
2022-10-19T02:40:01.275Z,971.94
2022-10-19T02:41:01.199Z,971.95
2022-10-19T02:42:01.130Z,971.99
2022-10-19T02:43:01.071Z,971.98
2022-10-19T02:44:01.014Z,971.98
2022-10-19T02:45:00.948Z,971.97
2022-10-19T02:46:00.881Z,971.99
2022-10-19T02:47:00.819Z,971.93
2022-10-19T02:48:00.754Z,971.94
2022-10-19T02:49:00.708Z,971.95
2022-10-19T02:50:00.651Z,971.95
2022-10-19T02:51:00.570Z,971.96
2022-10-19T02:52:00.499Z,971.97
2022-10-19T02:53:00.450Z,971.94
2022-10-19T02:54:04.114Z,971.93
2022-10-19T02:55:00.321Z,971.91
2022-10-19T02:56:00.259Z,971.88
2022-10-19T02:57:00.183Z,971.88
2022-10-19T02:58:00.122Z,971.86
2022-10-19T02:59:00.069Z,971.78
2022-10-19T02:59:59.994Z,971.80
2022-10-19T03:00:59.966Z,971.80
2022-10-19T03:01:59.869Z,971.80
2022-10-19T03:02:59.807Z,971.77
2022-10-19T03:03:59.750Z,971.77
2022-10-19T03:04:59.680Z,971.75
2022-10-19T03:05:59.618Z,971.72
2022-10-19T03:06:59.556Z,971.76
2022-10-19T03:07:59.498Z,971.70
2022-10-19T03:08:59.427Z,971.69
2022-10-19T03:09:59.367Z,971.70
2022-10-19T03:10:59.303Z,971.66
2022-10-19T03:11:59.242Z,971.65
2022-10-19T03:12:59.181Z,971.68
2022-10-19T03:13:59.112Z,971.62
2022-10-19T03:14:59.042Z,971.65
2022-10-19T03:15:58.984Z,971.62
2022-10-19T03:16:58.919Z,971.59
2022-10-19T03:17:58.856Z,971.58
2022-10-19T03:18:58.797Z,971.58
2022-10-19T03:19:58.727Z,971.60
2022-10-19T03:20:58.995Z,971.58
2022-10-19T03:21:58.608Z,971.59
2022-10-19T03:22:58.577Z,971.61
2022-10-19T03:23:58.485Z,971.60
2022-10-19T03:24:58.415Z,971.57
2022-10-19T03:25:58.358Z,971.56
2022-10-19T03:26:58.290Z,971.57
2022-10-19T03:27:58.228Z,971.57
2022-10-19T03:28:58.182Z,971.57
2022-10-19T03:29:58.099Z,971.57
2022-10-19T03:30:58.036Z,971.55
2022-10-19T03:31:57.971Z,971.55
2022-10-19T03:32:57.910Z,971.58
2022-10-19T03:33:57.846Z,971.57
2022-10-19T03:34:57.793Z,971.58
2022-10-19T03:35:57.717Z,971.58
2022-10-19T03:36:57.668Z,971.56
2022-10-19T03:37:57.590Z,971.56
2022-10-19T03:38:57.531Z,971.58
2022-10-19T03:39:57.467Z,971.52
2022-10-19T03:40:57.404Z,971.57
2022-10-19T03:41:57.343Z,971.55
2022-10-19T03:42:57.284Z,971.56
2022-10-19T03:43:57.281Z,971.53
2022-10-19T03:44:57.154Z,971.55
2022-10-19T03:45:57.089Z,971.53
2022-10-19T03:46:57.022Z,971.53
2022-10-19T03:47:56.963Z,971.52
2022-10-19T03:48:56.901Z,971.52
2022-10-19T03:49:56.834Z,971.52
2022-10-19T03:50:56.786Z,971.52
2022-10-19T03:51:56.727Z,971.51
2022-10-19T03:52:56.681Z,971.51
2022-10-19T03:53:56.585Z,971.53
2022-10-19T03:54:56.520Z,971.52
2022-10-19T03:55:56.461Z,971.55
2022-10-19T03:56:56.393Z,971.51
2022-10-19T03:57:56.352Z,971.57
2022-10-19T03:58:56.269Z,971.53
2022-10-19T03:59:56.201Z,971.53
2022-10-19T04:00:56.198Z,971.53
2022-10-19T04:01:56.085Z,971.55
2022-10-19T04:02:56.014Z,971.52
2022-10-19T04:03:55.956Z,971.52
2022-10-19T04:04:55.892Z,971.55
2022-10-19T04:05:55.828Z,971.54
2022-10-19T04:06:55.770Z,971.49
2022-10-19T04:07:55.703Z,971.50
2022-10-19T04:08:55.645Z,971.49
2022-10-19T04:09:55.580Z,971.48
2022-10-19T04:10:55.507Z,971.51
2022-10-19T04:11:55.454Z,971.52
2022-10-19T04:12:55.394Z,971.50
2022-10-19T04:13:55.391Z,971.46
2022-10-19T04:14:57.567Z,971.48
2022-10-19T04:15:55.203Z,971.43
2022-10-19T04:16:55.138Z,971.47
2022-10-19T04:17:55.070Z,971.50
2022-10-19T04:18:55.017Z,971.49
2022-10-19T04:19:54.949Z,971.47
2022-10-19T04:20:54.880Z,971.45
2022-10-19T04:21:54.821Z,971.48
2022-10-19T04:22:54.757Z,971.47
2022-10-19T04:23:54.694Z,971.48
2022-10-19T04:24:54.632Z,971.47
2022-10-19T04:25:54.569Z,971.46
2022-10-19T04:26:54.500Z,971.46
2022-10-19T04:27:54.446Z,971.45
2022-10-19T04:28:54.443Z,971.48
2022-10-19T04:29:54.316Z,971.48
2022-10-19T04:30:54.253Z,971.50
2022-10-19T04:31:54.191Z,971.49
2022-10-19T04:32:54.134Z,971.49
2022-10-19T04:33:54.061Z,971.43
2022-10-19T04:34:54.000Z,971.46
2022-10-19T04:35:53.939Z,971.49
2022-10-19T04:36:53.884Z,971.44
2022-10-19T04:37:53.815Z,971.47
2022-10-19T04:38:53.753Z,971.43
2022-10-19T04:39:53.683Z,971.45
2022-10-19T04:40:53.618Z,971.47
2022-10-19T04:41:53.558Z,971.45
2022-10-19T04:42:53.490Z,971.41
2022-10-19T04:43:53.431Z,971.41
2022-10-19T04:44:53.372Z,971.42
2022-10-19T04:45:53.306Z,971.37
2022-10-19T04:46:53.242Z,971.39
2022-10-19T04:47:53.183Z,971.36
2022-10-19T04:48:53.126Z,971.36
2022-10-19T04:49:53.056Z,971.38
2022-10-19T04:50:52.995Z,971.36
2022-10-19T04:51:52.927Z,971.35
2022-10-19T04:52:52.863Z,971.33
2022-10-19T04:53:54.480Z,971.37
2022-10-19T04:54:52.737Z,971.34
2022-10-19T04:55:52.679Z,971.33
2022-10-19T04:56:52.613Z,971.36
2022-10-19T04:57:52.552Z,971.35
2022-10-19T04:58:52.503Z,971.36
2022-10-19T04:59:52.422Z,971.32
2022-10-19T05:00:52.419Z,971.34
2022-10-19T05:01:52.298Z,971.35
2022-10-19T05:02:52.231Z,971.33
2022-10-19T05:03:52.206Z,971.35
2022-10-19T05:04:52.104Z,971.36
2022-10-19T05:05:52.066Z,971.32
2022-10-19T05:06:52.000Z,971.37
2022-10-19T05:07:51.920Z,971.33
2022-10-19T05:08:51.857Z,971.29
2022-10-19T05:09:51.791Z,971.32
2022-10-19T05:10:51.736Z,971.32
2022-10-19T05:11:51.671Z,971.31
2022-10-19T05:12:51.602Z,971.30
2022-10-19T05:13:51.544Z,971.29
2022-10-19T05:14:51.480Z,971.28
2022-10-19T05:15:51.420Z,971.30
2022-10-19T05:16:51.356Z,971.28
2022-10-19T05:17:51.297Z,971.27
2022-10-19T05:18:51.237Z,971.32
2022-10-19T05:19:51.166Z,971.28
2022-10-19T05:20:51.104Z,971.29
2022-10-19T05:21:51.034Z,971.31
2022-10-19T05:22:50.983Z,971.34
2022-10-19T05:23:50.911Z,971.34
2022-10-19T05:24:54.490Z,971.34
2022-10-19T05:25:50.783Z,971.32
2022-10-19T05:26:50.723Z,971.31
2022-10-19T05:27:50.658Z,971.31
2022-10-19T05:28:50.657Z,971.28
2022-10-19T05:29:50.548Z,971.29
2022-10-19T05:30:50.468Z,971.31
2022-10-19T05:31:50.405Z,971.30
2022-10-19T05:32:50.350Z,971.30
2022-10-19T05:33:50.298Z,971.31
2022-10-19T05:34:50.220Z,971.34
2022-10-19T05:35:50.158Z,971.31
2022-10-19T05:36:50.095Z,971.31
2022-10-19T05:37:50.030Z,971.31
2022-10-19T05:38:49.965Z,971.34
2022-10-19T05:39:49.903Z,971.32
2022-10-19T05:40:52.940Z,971.36
2022-10-19T05:41:49.779Z,971.33
2022-10-19T05:42:49.715Z,971.35
2022-10-19T05:43:49.653Z,971.33
2022-10-19T05:44:49.590Z,971.32
2022-10-19T05:45:49.525Z,971.32
2022-10-19T05:46:49.463Z,971.33
2022-10-19T05:47:49.411Z,971.28
2022-10-19T05:48:49.337Z,971.28
2022-10-19T05:49:49.285Z,971.31
2022-10-19T05:50:49.209Z,971.28
2022-10-19T05:51:49.170Z,971.30
2022-10-19T05:52:49.085Z,971.28
2022-10-19T05:53:49.052Z,971.28
2022-10-19T05:54:57.701Z,971.30
2022-10-19T05:58:25.852Z,971.27
2022-10-19T05:59:25.779Z,971.29
2022-10-19T06:01:30.156Z,971.32
2022-10-19T06:02:30.053Z,971.31
2022-10-19T06:04:34.406Z,971.32
2022-10-19T06:05:34.334Z,971.35
2022-10-19T06:09:10.271Z,971.39
2022-10-19T06:10:10.165Z,971.39
2022-10-19T06:12:16.221Z,971.37
2022-10-19T06:13:14.459Z,971.38
2022-10-19T06:15:07.780Z,971.43
2022-10-19T06:16:07.648Z,971.45
2022-10-19T06:25:38.512Z,971.54
2022-10-19T06:26:38.435Z,971.57
2022-10-19T06:28:42.858Z,971.54
2022-10-19T06:29:42.684Z,971.56
2022-10-19T06:39:14.566Z,971.60
2022-10-19T06:40:14.548Z,971.63
2022-10-19T06:41:14.425Z,971.58
2022-10-19T06:42:14.356Z,971.62
2022-10-19T06:43:14.291Z,971.62
2022-10-19T06:44:14.229Z,971.62
2022-10-19T06:45:14.169Z,971.57
2022-10-19T06:46:14.108Z,971.57
2022-10-19T06:47:14.052Z,971.59
2022-10-19T06:48:13.982Z,971.59
2022-10-19T06:49:13.930Z,971.58
2022-10-19T06:50:13.852Z,971.56
2022-10-19T06:51:13.795Z,971.60
2022-10-19T06:52:13.724Z,971.57
2022-10-19T06:53:13.665Z,971.59
2022-10-19T06:54:13.601Z,971.58
2022-10-19T06:55:13.537Z,971.58
2022-10-19T06:56:13.488Z,971.55
2022-10-19T06:57:13.415Z,971.61
2022-10-19T06:58:13.347Z,971.57
2022-10-19T06:59:14.736Z,971.65
2022-10-19T07:00:13.228Z,971.65
2022-10-19T07:01:13.240Z,971.65
2022-10-19T07:02:13.099Z,971.65
2022-10-19T07:03:13.038Z,971.67
2022-10-19T07:04:12.969Z,971.60
2022-10-19T07:05:12.913Z,971.63
2022-10-19T07:06:12.853Z,971.64
2022-10-19T07:07:12.786Z,971.57
2022-10-19T07:08:21.648Z,971.61
2022-10-19T07:11:48.739Z,971.61
2022-10-19T07:12:48.670Z,971.62
2022-10-19T07:14:53.025Z,971.64
2022-10-19T07:15:52.953Z,971.64
2022-10-19T07:16:52.882Z,971.66
2022-10-19T07:17:53.140Z,971.67
2022-10-19T07:18:52.745Z,971.69
2022-10-19T07:19:52.684Z,971.69
2022-10-19T07:20:52.619Z,971.66
2022-10-19T07:21:52.551Z,971.68
2022-10-19T07:22:52.508Z,971.64
2022-10-19T07:23:52.430Z,971.68
2022-10-19T07:24:52.394Z,971.65
2022-10-19T07:25:52.305Z,971.65
2022-10-19T07:26:52.255Z,971.61
2022-10-19T07:27:52.180Z,971.63
2022-10-19T07:28:52.118Z,971.65
2022-10-19T07:29:52.050Z,971.60
2022-10-19T07:30:51.999Z,971.60
2022-10-19T07:31:51.971Z,971.56
2022-10-19T07:32:51.869Z,971.57
2022-10-19T07:33:51.806Z,971.57
2022-10-19T07:34:51.748Z,971.58
2022-10-19T07:35:51.675Z,971.55
2022-10-19T07:37:00.451Z,971.59
2022-10-19T07:40:27.909Z,971.57
2022-10-19T07:50:27.454Z,971.62
2022-10-19T07:52:49.268Z,971.59
2022-10-19T07:53:48.910Z,971.66
2022-10-19T08:40:00.180Z,971.69
2022-10-19T08:40:59.705Z,971.66
2022-10-19T08:42:00.202Z,971.68
2022-10-19T08:42:59.228Z,971.70
2022-10-19T08:43:59.074Z,971.64
2022-10-19T08:44:59.103Z,971.71
2022-10-19T08:45:58.921Z,971.69
2022-10-19T08:47:00.518Z,971.71
2022-10-19T08:47:58.851Z,971.70
2022-10-19T08:48:58.729Z,971.73
2022-10-19T08:49:58.813Z,971.74
2022-10-19T08:50:58.661Z,971.73
2022-10-19T08:51:58.545Z,971.74
2022-10-19T08:52:58.479Z,971.76
2022-10-19T08:53:58.430Z,971.74
2022-10-19T08:54:58.361Z,971.77
2022-10-19T08:55:59.806Z,971.74
2022-10-19T08:56:58.230Z,971.73
2022-10-19T08:57:58.170Z,971.77
2022-10-19T08:58:58.103Z,971.74
2022-10-19T08:59:58.044Z,971.71
2022-10-19T09:00:57.998Z,971.71
2022-10-19T09:01:57.917Z,971.73
2022-10-19T09:02:57.888Z,971.72
2022-10-19T09:03:57.797Z,971.66
2022-10-19T09:04:57.735Z,971.67
2022-10-19T09:05:57.671Z,971.66
2022-10-19T09:06:57.616Z,971.67
2022-10-19T09:07:57.550Z,971.65
2022-10-19T09:08:57.559Z,971.63
2022-10-19T09:09:57.423Z,971.65
2022-10-19T09:10:57.369Z,971.65
2022-10-19T09:11:57.296Z,971.64
2022-10-19T09:12:58.542Z,971.61
2022-10-19T09:14:05.678Z,971.62
2022-10-19T09:14:57.143Z,971.60
2022-10-19T09:15:57.052Z,971.62
2022-10-19T09:16:56.989Z,971.59
2022-10-19T09:17:56.928Z,971.60
2022-10-19T09:18:56.868Z,971.66
2022-10-19T09:19:56.838Z,971.63
2022-10-19T09:20:56.739Z,971.66
2022-10-19T09:21:56.688Z,971.65
2022-10-19T09:22:56.616Z,971.64
2022-10-19T09:23:56.555Z,971.59
2022-10-19T09:24:56.492Z,971.63
2022-10-19T09:26:01.786Z,971.60
2022-10-19T09:26:56.370Z,971.60
2022-10-19T09:27:56.359Z,971.61
2022-10-19T09:28:56.244Z,971.56
2022-10-19T09:29:56.184Z,971.58
2022-10-19T09:30:56.124Z,971.53
2022-10-19T09:31:56.071Z,971.56
2022-10-19T09:32:55.999Z,971.55
2022-10-19T09:33:55.958Z,971.58
2022-10-19T09:34:55.880Z,971.58
2022-10-19T09:35:55.809Z,971.59
2022-10-19T09:36:55.752Z,971.56
2022-10-19T09:37:55.687Z,971.54
2022-10-19T09:38:55.630Z,971.56
2022-10-19T09:39:56.010Z,971.59
2022-10-19T09:40:55.507Z,971.63
2022-10-19T09:41:55.438Z,971.60
2022-10-19T09:42:55.385Z,971.63
2022-10-19T09:43:55.313Z,971.61
2022-10-19T09:44:55.253Z,971.64
2022-10-19T09:45:55.197Z,971.66
2022-10-19T09:46:55.135Z,971.66
2022-10-19T09:47:55.072Z,971.64
2022-10-19T09:48:55.007Z,971.68
2022-10-19T09:49:54.949Z,971.66
2022-10-19T09:50:54.902Z,971.69
2022-10-19T09:51:54.829Z,971.69
2022-10-19T09:52:54.772Z,971.70
2022-10-19T09:53:54.699Z,971.68
2022-10-19T09:54:54.641Z,971.70
2022-10-19T09:55:54.581Z,971.74
2022-10-19T09:56:54.517Z,971.71
2022-10-19T09:57:54.453Z,971.72
2022-10-19T09:58:54.395Z,971.72
2022-10-19T09:59:54.328Z,971.70
2022-10-19T10:00:54.272Z,971.70
2022-10-19T10:01:54.314Z,971.68
2022-10-19T10:02:54.148Z,971.64
2022-10-19T10:03:56.015Z,971.63
2022-10-19T10:04:54.023Z,971.65
2022-10-19T10:05:53.954Z,971.63
2022-10-19T10:06:53.900Z,971.62
2022-10-19T10:07:53.837Z,971.68
2022-10-19T10:08:53.822Z,971.64
2022-10-19T10:09:53.733Z,971.64
2022-10-19T10:10:53.650Z,971.63
2022-10-19T10:12:53.527Z,971.62
2022-10-19T10:13:53.465Z,971.66
2022-10-19T10:14:53.412Z,971.66
2022-10-19T10:15:53.345Z,971.67
2022-10-19T10:16:53.281Z,971.65
2022-10-19T10:17:53.218Z,971.65
2022-10-19T10:18:53.158Z,971.70
2022-10-19T10:19:53.125Z,971.66
2022-10-19T10:20:53.136Z,971.67
2022-10-19T10:21:52.974Z,971.67
2022-10-19T10:22:52.926Z,971.70
2022-10-19T10:23:52.875Z,971.66
2022-10-19T10:24:52.787Z,971.64
2022-10-19T10:25:52.722Z,971.64
2022-10-19T10:26:52.666Z,971.61
2022-10-19T10:27:52.597Z,971.61
2022-10-19T10:28:53.276Z,971.62
2022-10-19T10:29:52.575Z,971.58
2022-10-19T10:30:52.424Z,971.56
2022-10-19T10:31:52.369Z,971.54
2022-10-19T10:32:52.407Z,971.54
2022-10-19T10:34:55.877Z,971.51
2022-10-19T10:35:52.102Z,971.53
2022-10-19T10:36:52.066Z,971.50
2022-10-19T10:37:51.995Z,971.49
2022-10-19T10:38:51.992Z,971.49
2022-10-19T10:39:51.857Z,971.50
2022-10-19T10:40:51.803Z,971.50
2022-10-19T10:41:51.734Z,971.48
2022-10-19T10:42:51.688Z,971.47
2022-10-19T10:44:51.553Z,971.46
2022-10-19T10:45:51.503Z,971.47
2022-10-19T10:46:51.426Z,971.42
2022-10-19T10:47:51.364Z,971.41
2022-10-19T10:48:53.348Z,971.41
2022-10-19T10:49:51.246Z,971.40
2022-10-19T10:50:51.191Z,971.42
2022-10-19T10:51:53.012Z,971.42
2022-10-19T10:52:51.060Z,971.39
2022-10-19T10:53:51.009Z,971.38
2022-10-19T10:54:50.935Z,971.38
2022-10-19T10:55:50.874Z,971.38
2022-10-19T10:56:50.817Z,971.40
2022-10-19T10:57:50.754Z,971.29
2022-10-19T10:58:50.695Z,971.32
2022-10-19T10:59:50.625Z,971.36
2022-10-19T11:00:50.576Z,971.40
2022-10-19T11:01:50.553Z,971.28
2022-10-19T11:02:50.451Z,971.30
2022-10-19T11:03:50.397Z,971.28
2022-10-19T11:04:52.322Z,971.29
2022-10-19T11:05:50.265Z,971.34
2022-10-19T11:06:50.206Z,971.29
2022-10-19T11:07:50.140Z,971.24
2022-10-19T11:08:50.126Z,971.26
2022-10-19T11:09:50.009Z,971.23
2022-10-19T11:10:50.787Z,971.26
2022-10-19T11:11:49.886Z,971.29
2022-10-19T11:12:49.827Z,971.25
2022-10-19T11:13:49.774Z,971.25
2022-10-19T11:14:49.710Z,971.26
2022-10-19T11:15:49.647Z,971.15
2022-10-19T11:16:49.583Z,971.16
2022-10-19T11:17:49.520Z,971.14
2022-10-19T11:18:49.459Z,971.14
2022-10-19T11:19:49.395Z,971.14
2022-10-19T11:20:49.344Z,971.08
2022-10-19T11:21:49.277Z,971.11
2022-10-19T11:22:49.223Z,971.05
2022-10-19T11:23:49.150Z,971.05
2022-10-19T11:24:49.091Z,971.01
2022-10-19T11:25:49.025Z,971.04
2022-10-19T11:26:48.971Z,971.02
2022-10-19T11:27:48.920Z,970.99
2022-10-19T11:28:48.848Z,971.00
2022-10-19T11:29:48.782Z,971.00
2022-10-19T11:30:50.732Z,971.02
2022-10-19T11:31:48.666Z,970.99
2022-10-19T11:32:48.600Z,970.97
2022-10-19T11:33:48.542Z,970.95
2022-10-19T11:34:48.502Z,970.91
2022-10-19T11:35:48.438Z,970.93
2022-10-19T11:36:48.357Z,970.94
2022-10-19T11:38:00.417Z,970.95
2022-10-19T11:38:48.226Z,970.94
2022-10-19T11:39:48.172Z,970.93
2022-10-19T11:41:06.041Z,970.94
2022-10-19T11:41:48.044Z,970.95
2022-10-19T11:43:47.929Z,970.96
2022-10-19T11:44:47.859Z,970.90
2022-10-19T11:45:47.800Z,970.94
2022-10-19T11:46:47.738Z,970.90
2022-10-19T11:57:02.888Z,970.75
2022-10-19T11:57:48.180Z,970.75
2022-10-19T12:19:36.528Z,970.47
2022-10-19T12:20:36.317Z,970.47
2022-10-19T12:33:12.643Z,970.32
2022-10-19T12:34:12.518Z,970.31
2022-10-19T12:35:12.481Z,970.31
2022-10-19T12:36:12.382Z,970.33
2022-10-19T12:37:12.353Z,970.28
2022-10-19T12:38:12.252Z,970.26
2022-10-19T12:39:12.189Z,970.27
2022-10-19T12:40:12.129Z,970.27
2022-10-19T12:41:12.061Z,970.31
2022-10-19T12:42:12.006Z,970.31
2022-10-19T12:43:11.946Z,970.25
2022-10-19T12:44:11.964Z,970.25
2022-10-19T12:45:11.819Z,970.26
2022-10-19T12:46:11.764Z,970.22
2022-10-19T12:47:11.698Z,970.24
2022-10-19T12:48:11.634Z,970.20
2022-10-19T12:49:11.619Z,970.19
2022-10-19T12:50:11.555Z,970.20
2022-10-19T12:51:11.452Z,970.16
2022-10-19T12:52:11.387Z,970.13
2022-10-19T12:53:11.329Z,970.11
2022-10-19T12:54:11.267Z,970.14
2022-10-19T12:55:11.204Z,970.10
2022-10-19T12:56:11.141Z,970.11
2022-10-19T12:57:11.082Z,970.05
2022-10-19T12:58:11.022Z,970.03
2022-10-19T12:59:10.957Z,970.10
2022-10-19T13:00:10.899Z,970.05
2022-10-19T13:01:10.881Z,970.05
2022-10-19T13:02:10.777Z,970.02
2022-10-19T13:03:10.711Z,969.98
2022-10-19T13:04:10.651Z,970.02
2022-10-19T13:05:10.587Z,969.99
2022-10-19T13:06:10.534Z,969.89
2022-10-19T13:07:10.468Z,969.91
2022-10-19T13:08:13.700Z,969.88
2022-10-19T13:09:10.455Z,969.90
2022-10-19T13:10:10.278Z,969.91
2022-10-19T13:11:10.220Z,969.87
2022-10-19T13:12:10.166Z,969.83
2022-10-19T13:13:10.094Z,969.86
2022-10-19T13:14:10.037Z,969.83
2022-10-19T13:15:09.986Z,969.84
2022-10-19T13:16:09.912Z,969.87
2022-10-19T13:17:09.849Z,969.82
2022-10-19T13:18:09.792Z,969.81
2022-10-19T13:19:09.741Z,969.83
2022-10-19T13:20:09.685Z,969.82
2022-10-19T13:21:09.608Z,969.85
2022-10-19T13:22:09.544Z,969.80
2022-10-19T13:23:09.492Z,969.80
2022-10-19T13:24:09.445Z,969.83
2022-10-19T13:25:09.360Z,969.79
2022-10-19T13:26:09.298Z,969.73
2022-10-19T13:27:09.243Z,969.75
2022-10-19T13:28:09.178Z,969.72
2022-10-19T13:29:09.115Z,969.74
2022-10-19T13:30:09.110Z,969.70
2022-10-19T13:31:12.929Z,969.68
2022-10-19T13:32:08.926Z,969.69
2022-10-19T13:33:08.869Z,969.69
2022-10-19T13:34:08.808Z,969.67
2022-10-19T13:35:08.749Z,969.65
2022-10-19T13:36:08.688Z,969.67
2022-10-19T13:37:08.624Z,969.63
2022-10-19T13:38:08.561Z,969.66
2022-10-19T13:39:08.544Z,969.65
2022-10-19T13:40:08.441Z,969.67
2022-10-19T13:41:08.377Z,969.64
2022-10-19T13:42:08.318Z,969.65
2022-10-19T13:43:08.254Z,969.67
2022-10-19T13:44:08.198Z,969.64
2022-10-19T13:45:08.131Z,969.63
2022-10-19T13:46:08.082Z,969.70
2022-10-19T13:47:08.010Z,969.64
2022-10-19T13:48:07.950Z,969.64
2022-10-19T13:49:07.892Z,969.67
2022-10-19T13:50:07.844Z,969.65
2022-10-19T13:51:07.764Z,969.59
2022-10-19T13:52:07.698Z,969.61
2022-10-19T13:53:07.647Z,969.55
2022-10-19T13:54:07.580Z,969.60
2022-10-19T13:55:07.519Z,969.57
2022-10-19T13:56:07.459Z,969.55
2022-10-19T13:57:07.404Z,969.56
2022-10-19T13:58:07.343Z,969.56
2022-10-19T13:59:07.279Z,969.56
2022-10-19T14:00:07.217Z,969.56
2022-10-19T14:01:07.149Z,969.52
2022-10-19T14:02:07.103Z,969.46
2022-10-19T14:03:10.753Z,969.45
2022-10-19T14:04:06.964Z,969.45
2022-10-19T14:05:06.902Z,969.40
2022-10-19T14:06:06.848Z,969.43
2022-10-19T14:07:06.779Z,969.41
2022-10-19T14:08:06.722Z,969.42
2022-10-19T14:09:06.705Z,969.36
2022-10-19T14:10:06.597Z,969.37
2022-10-19T14:11:06.539Z,969.36
2022-10-19T14:12:06.476Z,969.36
2022-10-19T14:13:06.415Z,969.36
2022-10-19T14:14:06.355Z,969.30
2022-10-19T14:15:06.292Z,969.33
2022-10-19T14:16:06.230Z,969.30
2022-10-19T14:17:06.228Z,969.34
2022-10-19T14:18:06.218Z,969.29
2022-10-19T14:19:06.046Z,969.31
2022-10-19T14:20:05.985Z,969.27
2022-10-19T14:21:05.920Z,969.23
2022-10-19T14:22:05.879Z,969.21
2022-10-19T14:23:05.803Z,969.18
2022-10-19T14:24:05.744Z,969.18
2022-10-19T14:25:05.672Z,969.12
2022-10-19T14:26:05.611Z,969.10
2022-10-19T14:27:05.558Z,969.14
2022-10-19T14:28:05.489Z,969.12
2022-10-19T14:29:05.432Z,969.10
2022-10-19T14:30:05.450Z,969.12
2022-10-19T14:31:05.306Z,969.11
2022-10-19T14:32:05.243Z,969.14
2022-10-19T14:33:05.181Z,969.17
2022-10-19T14:34:05.122Z,969.11
2022-10-19T14:36:04.995Z,969.16
2022-10-19T14:37:04.934Z,969.16
2022-10-19T14:38:04.870Z,969.16
2022-10-19T14:39:04.812Z,969.21
2022-10-19T14:40:04.750Z,969.25
2022-10-19T14:41:04.690Z,969.21
2022-10-19T14:42:04.634Z,969.19
2022-10-19T14:43:04.564Z,969.18
2022-10-19T14:44:04.499Z,969.16
2022-10-19T14:45:04.443Z,969.12
2022-10-19T14:46:04.378Z,969.14
2022-10-19T14:47:04.315Z,969.12
2022-10-19T14:48:04.254Z,969.14
2022-10-19T14:49:04.209Z,969.06
2022-10-19T14:50:04.130Z,969.13
2022-10-19T14:51:04.074Z,969.10
2022-10-19T14:52:04.006Z,969.12
2022-10-19T14:53:03.951Z,969.14
2022-10-19T14:54:03.951Z,969.13
2022-10-19T14:55:03.817Z,969.13
2022-10-19T14:56:03.756Z,969.14
2022-10-19T14:57:03.699Z,969.14
2022-10-19T14:58:03.642Z,969.12
2022-10-19T14:59:03.578Z,969.12
2022-10-19T15:00:03.593Z,969.05
2022-10-19T15:01:03.452Z,969.11
2022-10-19T15:02:03.385Z,969.10
2022-10-19T15:03:03.324Z,969.01
2022-10-19T15:04:03.264Z,969.06
2022-10-19T15:05:03.199Z,968.99
2022-10-19T15:06:03.138Z,969.00
2022-10-19T15:07:03.080Z,969.00
2022-10-19T15:08:03.014Z,969.01
2022-10-19T15:09:02.968Z,968.93
2022-10-19T15:10:02.983Z,968.93
2022-10-19T15:11:02.828Z,968.94
2022-10-19T15:12:02.767Z,968.91
2022-10-19T15:13:02.705Z,968.91
2022-10-19T15:14:02.650Z,968.89
2022-10-19T15:15:02.583Z,968.90
2022-10-19T15:16:02.519Z,968.90
2022-10-19T15:17:02.456Z,968.89
2022-10-19T15:18:02.575Z,968.96
2022-10-19T15:19:02.337Z,968.95
2022-10-19T15:20:02.407Z,968.96
2022-10-19T15:21:12.121Z,968.91
2022-10-19T15:22:02.145Z,968.91
2022-10-19T15:23:02.142Z,968.85
2022-10-19T15:24:02.019Z,968.92
2022-10-19T15:25:01.961Z,968.86
2022-10-19T15:26:01.906Z,968.85
2022-10-19T15:27:09.044Z,968.80
2022-10-19T15:28:01.791Z,968.79
2022-10-19T15:29:01.711Z,968.80
2022-10-19T15:30:01.650Z,968.84
2022-10-19T15:31:01.589Z,968.77
2022-10-19T15:32:01.527Z,968.75
2022-10-19T15:33:01.465Z,968.79
2022-10-19T15:34:01.400Z,968.78
2022-10-19T15:35:01.341Z,968.72
2022-10-19T15:37:01.218Z,968.79
2022-10-19T15:38:01.152Z,968.78
2022-10-19T15:39:11.828Z,968.80